Terminal Aerodrome Forecast
Issued by NWS

Home | Current Version | Previous Version | Text Only | Print | Product List | Glossary On
Versions: 1 2 3 4 5 6 7 8 9 10 11 12 13 14 15 16 17 18 19 20 21 22 23 24 25 26 27 28 29 30 31 32 33 34 35 36 37 38 39 40 41 42 43 44
000
FTUS42 KGSP 232000 AAB
TAFHKY
TAF AMD
KHKY 232025Z 2320/2418 24005KT P6SM VCTS BKN035CB
      TEMPO 2320/2323 VRB15G25KT 1SM +TSRA OVC020CB
     FM232300 24004KT P6SM BKN045
     FM240300 00000KT P6SM BKN080
     FM241400 00000KT P6SM BKN070 PROB30 2415/2418 4SM TSRA
      BKN040CB=

USA.gov is the U.S. government's official web portal to all federal, state and local government web resources and services.